createdAt,value
2018-05-01T00:01:38.687Z,69.70
2018-05-01T00:04:06.894Z,69.60
2018-05-01T00:06:34.322Z,69.30
2018-05-01T00:09:02.535Z,70.70
2018-05-01T00:11:29.965Z,70.60
2018-05-01T00:13:57.411Z,70.70
2018-05-01T00:16:25.602Z,71.00
2018-05-01T00:18:53.040Z,71.00
2018-05-01T00:21:21.253Z,71.80
2018-05-01T00:23:48.695Z,71.70
2018-05-01T00:26:16.122Z,71.70
2018-05-01T00:28:44.330Z,71.60
2018-05-01T00:31:11.749Z,71.50
2018-05-01T00:33:39.966Z,71.20
2018-05-01T00:36:07.399Z,71.20
2018-05-01T00:38:34.838Z,70.80
2018-05-01T00:41:03.048Z,71.30
2018-05-01T00:43:30.476Z,71.30
2018-05-01T00:45:58.674Z,72.10
2018-05-01T00:48:26.106Z,72.10
2018-05-01T00:50:54.308Z,72.30
2018-05-01T00:53:21.750Z,72.40
2018-05-01T00:55:49.170Z,72.90
2018-05-01T00:58:16.607Z,73.20
2018-05-01T01:00:44.039Z,73.50
2018-05-01T01:03:11.492Z,72.70
2018-05-01T01:05:38.909Z,73.40
2018-05-01T01:08:07.127Z,72.90
2018-05-01T01:10:34.575Z,72.80
2018-05-01T01:13:01.994Z,72.00
2018-05-01T01:15:30.198Z,72.80
2018-05-01T01:17:57.622Z,72.60
2018-05-01T01:20:25.837Z,73.40
2018-05-01T01:22:53.264Z,73.40
2018-05-01T01:25:20.704Z,73.10
2018-05-01T01:27:48.903Z,73.70
2018-05-01T01:30:16.338Z,73.60
2018-05-01T01:32:44.550Z,74.40
2018-05-01T01:35:11.503Z,74.40
2018-05-01T01:37:38.449Z,74.00
2018-05-01T01:40:05.404Z,74.20
2018-05-01T01:42:32.349Z,74.50
2018-05-01T01:44:59.298Z,74.90
2018-05-01T01:47:26.253Z,74.70
2018-05-01T01:49:53.197Z,74.30
2018-05-01T01:52:20.134Z,74.40
2018-05-01T01:54:47.092Z,74.70
2018-05-01T01:57:14.034Z,74.80
2018-05-01T01:59:40.979Z,74.90
2018-05-01T02:02:07.931Z,75.30
2018-05-01T02:04:34.875Z,75.00
2018-05-01T02:07:01.810Z,75.10
2018-05-01T02:09:28.756Z,75.40
2018-05-01T02:11:55.695Z,75.30
2018-05-01T02:14:22.644Z,75.60
2018-05-01T02:16:49.611Z,78.50
2018-05-01T02:19:16.546Z,80.90
2018-05-01T02:21:43.486Z,81.60
2018-05-01T02:24:10.426Z,83.50
2018-05-01T02:26:37.367Z,84.00
2018-05-01T02:29:04.301Z,84.80
2018-05-01T02:31:31.246Z,85.40
2018-05-01T02:33:58.195Z,85.50
2018-05-01T02:36:25.139Z,85.90
2018-05-01T02:38:52.084Z,86.10
2018-05-01T02:41:19.094Z,86.20
2018-05-01T02:43:45.966Z,86.40
2018-05-01T02:46:12.917Z,86.20
2018-05-01T02:48:39.853Z,86.80
2018-05-01T02:51:06.804Z,86.90
2018-05-01T02:53:33.744Z,87.20
2018-05-01T02:56:00.688Z,87.90
2018-05-01T02:58:27.635Z,88.10
2018-05-01T03:00:54.575Z,88.50
2018-05-01T03:03:21.531Z,88.70
2018-05-01T03:05:48.470Z,88.90
2018-05-01T03:08:15.411Z,89.50
2018-05-01T03:10:42.352Z,89.50
2018-05-01T03:13:09.293Z,89.30
2018-05-01T03:15:36.238Z,89.80
2018-05-01T03:18:03.178Z,90.00
2018-05-01T03:20:30.121Z,90.00
2018-05-01T03:22:57.062Z,90.10
2018-05-01T03:25:24.053Z,90.20
2018-05-01T03:27:50.964Z,90.40
2018-05-01T03:30:17.907Z,90.50
2018-05-01T03:32:44.846Z,90.80
2018-05-01T03:35:11.795Z,90.40
2018-05-01T03:37:38.739Z,91.30
2018-05-01T03:40:05.682Z,91.20
2018-05-01T03:42:32.624Z,91.30
2018-05-01T03:44:59.571Z,91.30
2018-05-01T03:47:26.503Z,91.10
2018-05-01T03:49:53.445Z,91.30
2018-05-01T03:52:20.394Z,91.30
2018-05-01T03:54:47.335Z,91.10
2018-05-01T03:57:14.271Z,91.30
2018-05-01T03:59:41.214Z,91.30
2018-05-01T04:02:08.170Z,90.90
2018-05-01T04:04:35.116Z,90.70
2018-05-01T04:07:02.819Z,91.00
2018-05-01T04:09:30.575Z,91.30
2018-05-01T04:11:57.519Z,91.10
2018-05-01T04:14:24.452Z,91.20
2018-05-01T04:16:51.390Z,91.40
2018-05-01T04:19:18.327Z,91.30
2018-05-01T04:21:45.269Z,91.20
2018-05-01T04:24:12.210Z,91.20
2018-05-01T04:26:39.150Z,91.10
2018-05-01T04:29:06.091Z,91.10
2018-05-01T04:31:33.037Z,91.10
2018-05-01T04:33:59.982Z,90.60
2018-05-01T04:36:26.937Z,91.00
2018-05-01T04:38:53.888Z,91.00
2018-05-01T04:41:20.829Z,90.30
2018-05-01T04:43:47.765Z,90.60
2018-05-01T04:46:14.714Z,90.20
2018-05-01T04:48:41.658Z,90.30
2018-05-01T04:51:08.598Z,90.30
2018-05-01T04:53:35.534Z,90.20
2018-05-01T04:56:02.474Z,90.20
2018-05-01T04:58:29.469Z,90.30
2018-05-01T05:00:57.503Z,90.60
2018-05-01T05:03:24.438Z,90.50
2018-05-01T05:05:51.383Z,90.80
2018-05-01T05:08:18.326Z,90.10
2018-05-01T05:10:45.258Z,90.40
2018-05-01T05:13:12.202Z,90.50
2018-05-01T05:15:39.241Z,90.30
2018-05-01T05:18:06.130Z,90.60
2018-05-01T05:20:33.062Z,90.50
2018-05-01T05:23:00.003Z,90.70
2018-05-01T05:25:26.936Z,90.70
2018-05-01T05:27:53.882Z,90.90
2018-05-01T05:30:20.824Z,91.00
2018-05-01T05:32:47.767Z,91.40
2018-05-01T05:35:14.696Z,91.60
2018-05-01T05:37:41.626Z,91.40
2018-05-01T05:40:08.562Z,91.10
2018-05-01T05:42:35.506Z,91.00
2018-05-01T05:45:02.459Z,90.70
2018-05-01T05:47:29.422Z,90.30
2018-05-01T05:49:56.327Z,90.30
2018-05-01T05:52:24.114Z,90.70
2018-05-01T05:54:51.065Z,90.60
2018-05-01T05:57:18.084Z,91.50
2018-05-01T05:59:45.868Z,92.00
2018-05-01T06:02:12.858Z,92.00
2018-05-01T06:04:39.799Z,91.40
2018-05-01T06:07:06.739Z,91.60
2018-05-01T06:09:33.676Z,91.20
2018-05-01T06:12:00.618Z,90.70
2018-05-01T06:14:27.551Z,90.70
2018-05-01T06:16:54.493Z,90.30
2018-05-01T06:19:21.438Z,89.50
2018-05-01T06:21:48.405Z,89.80
2018-05-01T06:24:15.323Z,88.40
2018-05-01T06:26:42.266Z,87.10
2018-05-01T06:29:09.201Z,87.90
2018-05-01T06:31:36.149Z,87.60
2018-05-01T06:34:03.078Z,87.50
2018-05-01T06:36:30.021Z,87.80
2018-05-01T06:38:56.946Z,88.20
2018-05-01T06:41:24.651Z,87.50
2018-05-01T06:43:51.631Z,87.50
2018-05-01T06:46:18.521Z,87.40
2018-05-01T06:48:45.449Z,87.00
2018-05-01T06:51:13.146Z,88.60
2018-05-01T06:53:40.101Z,87.40
2018-05-01T06:56:07.042Z,87.70
2018-05-01T06:58:33.981Z,87.80
2018-05-01T07:01:00.910Z,88.80
2018-05-01T07:03:27.850Z,88.30
2018-05-01T07:05:54.784Z,87.90
2018-05-01T07:08:22.484Z,87.00
2018-05-01T07:10:49.426Z,87.00
2018-05-01T07:13:16.367Z,86.80
2018-05-01T07:15:43.314Z,86.90
2018-05-01T07:18:10.251Z,86.10
2018-05-01T07:20:37.193Z,86.00
2018-05-01T07:23:04.151Z,85.40
2018-05-01T07:25:31.083Z,85.40
2018-05-01T07:27:58.030Z,85.10
2018-05-01T07:30:24.950Z,84.10
2018-05-01T07:32:51.892Z,83.30
2018-05-01T07:35:18.822Z,84.20
2018-05-01T07:37:46.537Z,83.70
2018-05-01T07:40:13.465Z,83.60
2018-05-01T07:42:40.412Z,83.80
2018-05-01T07:45:07.353Z,82.30
2018-05-01T07:47:34.297Z,82.20
2018-05-01T07:50:01.242Z,82.00
2018-05-01T07:52:28.175Z,82.50
2018-05-01T07:54:55.111Z,83.40
2018-05-01T07:57:22.117Z,82.20
2018-05-01T07:59:49.050Z,80.80
2018-05-01T08:02:15.990Z,79.90
2018-05-01T08:04:42.935Z,80.50
2018-05-01T08:07:11.786Z,80.30
2018-05-01T08:09:38.719Z,81.20
2018-05-01T08:12:05.706Z,79.80
2018-05-01T08:14:32.614Z,79.90
2018-05-01T08:16:59.558Z,78.20
2018-05-01T08:19:26.505Z,79.90
2018-05-01T08:21:53.435Z,79.50
2018-05-01T08:24:20.407Z,79.70
2018-05-01T08:26:47.346Z,76.80
2018-05-01T08:29:14.293Z,76.80
2018-05-01T08:31:41.229Z,77.00
2018-05-01T08:34:08.170Z,75.50
2018-05-01T08:36:35.107Z,76.00
2018-05-01T08:39:02.076Z,75.40
2018-05-01T08:41:29.022Z,75.20
2018-05-01T08:43:55.982Z,74.60
2018-05-01T08:46:22.927Z,77.40
2018-05-01T08:48:49.879Z,77.60
2018-05-01T08:51:16.818Z,74.50
2018-05-01T08:53:43.757Z,75.90
2018-05-01T08:56:10.702Z,73.60
2018-05-01T08:58:37.671Z,74.60
2018-05-01T09:01:04.602Z,74.10
2018-05-01T09:03:31.547Z,75.50
2018-05-01T09:05:58.494Z,73.40
2018-05-01T09:08:25.450Z,74.50
2018-05-01T09:10:52.379Z,74.50
2018-05-01T09:13:19.334Z,74.10
2018-05-01T09:15:46.272Z,74.60
2018-05-01T09:18:13.385Z,74.40
2018-05-01T09:20:40.153Z,74.00
2018-05-01T09:23:07.098Z,74.50
2018-05-01T09:25:34.096Z,75.40
2018-05-01T09:28:00.996Z,73.20
2018-05-01T09:30:39.042Z,76.00
2018-05-01T09:33:05.983Z,73.40
2018-05-01T09:35:33.695Z,72.50
2018-05-01T09:38:00.655Z,72.50
2018-05-01T09:40:27.586Z,74.00
2018-05-01T09:42:54.542Z,74.70
2018-05-01T09:45:21.479Z,74.10
2018-05-01T09:48:06.100Z,76.60
2018-05-01T09:50:33.042Z,76.40
2018-05-01T09:53:00.490Z,76.30
2018-05-01T09:55:27.919Z,74.90
2018-05-01T09:57:55.353Z,75.60
2018-05-01T10:00:24.708Z,77.40
2018-05-01T10:02:52.132Z,75.10
2018-05-01T10:05:19.568Z,74.90
2018-05-01T10:07:47.002Z,74.40
2018-05-01T10:10:14.431Z,73.00
2018-05-01T10:12:41.859Z,71.90
2018-05-01T10:15:10.076Z,71.70
2018-05-01T10:17:37.506Z,71.70
2018-05-01T10:20:04.934Z,69.90
2018-05-01T10:22:32.366Z,71.50
2018-05-01T10:24:59.798Z,70.70
2018-05-01T10:27:27.222Z,69.60
2018-05-01T10:29:55.427Z,69.70
2018-05-01T10:32:22.855Z,69.50
2018-05-01T10:34:51.057Z,69.10
2018-05-01T10:37:18.483Z,68.20
2018-05-01T10:39:46.699Z,69.10
2018-05-01T10:42:14.123Z,69.10
2018-05-01T10:44:41.559Z,66.40
2018-05-01T10:47:08.988Z,64.20
2018-05-01T10:49:36.426Z,64.80
2018-05-01T10:52:03.865Z,66.20
2018-05-01T10:54:31.307Z,66.00
2018-05-01T10:56:58.738Z,66.40
2018-05-01T10:59:26.959Z,64.90
2018-05-01T11:01:54.374Z,64.90
2018-05-01T11:04:22.596Z,60.00
2018-05-01T11:06:49.991Z,59.90
2018-05-01T11:09:17.422Z,58.60
2018-05-01T11:11:44.851Z,58.90
2018-05-01T11:14:12.290Z,59.10
2018-05-01T11:16:39.720Z,60.30
2018-05-01T11:19:07.982Z,59.70
2018-05-01T11:21:35.409Z,59.60
2018-05-01T11:24:02.898Z,58.70
2018-05-01T11:26:30.318Z,59.00
2018-05-01T11:28:57.742Z,61.20
2018-05-01T11:31:25.171Z,56.90
2018-05-01T11:33:52.598Z,56.60
2018-05-01T11:36:20.048Z,58.70
2018-05-01T11:38:47.480Z,55.90
2018-05-01T11:41:14.914Z,56.40
2018-05-01T11:43:42.342Z,56.10
2018-05-01T11:46:09.787Z,57.30
2018-05-01T11:48:37.210Z,57.20
2018-05-01T11:51:04.647Z,58.70
2018-05-01T11:53:32.071Z,59.70
2018-05-01T11:55:59.507Z,59.50
2018-05-01T11:58:26.926Z,60.90
2018-05-01T12:00:54.356Z,59.00
2018-05-01T12:03:21.773Z,59.80
2018-05-01T12:05:49.221Z,59.40
2018-05-01T12:08:16.649Z,59.70
2018-05-01T12:10:44.078Z,58.60
2018-05-01T12:13:11.511Z,58.50
2018-05-01T12:15:38.939Z,58.60
2018-05-01T12:18:06.367Z,57.70
2018-05-01T12:20:33.790Z,58.30
2018-05-01T12:23:01.987Z,59.30
2018-05-01T12:25:29.419Z,59.20
2018-05-01T12:27:57.625Z,57.70
2018-05-01T12:30:25.055Z,57.70
2018-05-01T12:32:53.246Z,58.30
2018-05-01T12:35:20.675Z,58.30
2018-05-01T12:37:48.876Z,54.10
2018-05-01T12:40:16.307Z,54.00
2018-05-01T12:42:44.495Z,52.10
2018-05-01T12:45:11.922Z,52.10
2018-05-01T12:47:40.114Z,54.90
2018-05-01T12:50:07.542Z,54.30
2018-05-01T12:52:34.979Z,54.90
2018-05-01T12:55:02.428Z,55.30
2018-05-01T12:57:29.850Z,54.40
2018-05-01T12:59:58.042Z,55.50
2018-05-01T13:02:25.478Z,55.60
2018-05-01T13:04:53.662Z,57.60
2018-05-01T13:07:21.090Z,58.10
2018-05-01T13:09:48.518Z,57.60
2018-05-01T13:12:15.987Z,56.00
2018-05-01T13:14:43.387Z,56.50
2018-05-01T13:17:10.818Z,55.70
2018-05-01T13:19:38.246Z,55.40
2018-05-01T13:22:05.678Z,53.60
2018-05-01T13:24:33.115Z,54.10
2018-05-01T13:27:00.541Z,57.50
2018-05-01T13:29:28.734Z,55.70
2018-05-01T13:31:56.171Z,55.60
2018-05-01T13:34:23.641Z,55.70
2018-05-01T13:36:51.089Z,54.60
2018-05-01T13:39:19.296Z,56.60
2018-05-01T13:41:46.721Z,56.60
2018-05-01T13:44:14.926Z,58.70
2018-05-01T13:46:42.507Z,58.60
2018-05-01T13:49:09.939Z,58.60
2018-05-01T13:51:37.370Z,58.80
2018-05-01T13:54:05.572Z,58.70
2018-05-01T13:56:33.002Z,58.60
2018-05-01T13:59:01.202Z,60.30
2018-05-01T14:01:28.643Z,60.30
2018-05-01T14:03:57.563Z,60.40
2018-05-01T14:06:25.047Z,60.40
2018-05-01T14:08:52.430Z,60.80
2018-05-01T14:11:19.862Z,59.30
2018-05-01T14:13:47.294Z,57.20
2018-05-01T14:16:14.740Z,58.80
2018-05-01T14:18:42.162Z,56.60
2018-05-01T14:21:10.382Z,59.40
2018-05-01T14:23:37.820Z,59.30
2018-05-01T14:26:05.238Z,61.10
2018-05-01T14:28:32.676Z,60.40
2018-05-01T14:31:00.114Z,59.50
2018-05-01T14:33:27.552Z,60.10
2018-05-01T14:35:54.978Z,59.90
2018-05-01T14:38:22.411Z,60.00
2018-05-01T14:40:49.847Z,59.90
2018-05-01T14:43:17.290Z,59.10
2018-05-01T14:45:44.734Z,58.70
2018-05-01T14:48:12.170Z,59.20
2018-05-01T14:50:39.651Z,59.20
2018-05-01T14:53:07.100Z,58.30
2018-05-01T14:55:34.527Z,60.00
2018-05-01T14:58:02.738Z,60.40
2018-05-01T15:00:30.183Z,60.40
2018-05-01T15:03:04.427Z,59.20
2018-05-01T15:05:31.862Z,57.50
2018-05-01T15:07:59.310Z,58.40
2018-05-01T15:10:26.745Z,57.70
2018-05-01T15:12:54.179Z,58.20
2018-05-01T15:15:22.383Z,58.20
2018-05-01T15:17:49.826Z,58.30
2018-05-01T15:20:18.018Z,57.70
2018-05-01T15:22:45.632Z,57.70
2018-05-01T15:25:13.068Z,58.10
2018-05-01T15:27:40.516Z,56.50
2018-05-01T15:30:08.076Z,57.20
2018-05-01T15:32:35.386Z,58.10
2018-05-01T15:35:03.585Z,57.50
2018-05-01T15:37:31.023Z,57.50
2018-05-01T15:39:59.221Z,58.60
2018-05-01T15:42:26.660Z,58.60
2018-05-01T15:44:54.083Z,57.10
2018-05-01T15:47:21.521Z,59.60
2018-05-01T15:49:48.967Z,57.30
2018-05-01T15:52:16.390Z,57.60
2018-05-01T15:54:43.829Z,58.30
2018-05-01T15:57:12.023Z,58.50
2018-05-01T15:59:39.463Z,58.50
2018-05-01T16:02:07.661Z,58.60
2018-05-01T16:04:35.093Z,58.50
2018-05-01T16:07:03.282Z,58.40
2018-05-01T16:09:30.717Z,57.70
2018-05-01T16:11:58.929Z,57.30
2018-05-01T16:14:26.387Z,57.80
2018-05-01T16:16:54.154Z,58.70
2018-05-01T16:19:21.573Z,57.30
2018-05-01T16:21:49.783Z,57.50
2018-05-01T16:24:17.226Z,57.60
2018-05-01T16:26:44.649Z,58.20
2018-05-01T16:29:12.871Z,58.60
2018-05-01T16:31:40.294Z,58.50
2018-05-01T16:34:08.592Z,58.60
2018-05-01T16:36:35.935Z,58.60
2018-05-01T16:39:03.375Z,59.20
2018-05-01T16:41:31.582Z,59.40
2018-05-01T16:43:59.005Z,59.40
2018-05-01T16:46:27.206Z,58.80
2018-05-01T16:48:54.638Z,58.80
2018-05-01T16:51:22.834Z,59.90
2018-05-01T16:53:50.270Z,59.90
2018-05-01T16:56:18.475Z,60.50
2018-05-01T16:58:45.915Z,60.40
2018-05-01T17:01:13.343Z,60.80
2018-05-01T17:03:40.785Z,58.70
2018-05-01T17:06:08.210Z,60.70
2018-05-01T17:08:35.654Z,60.10
2018-05-01T17:11:03.094Z,59.20
2018-05-01T17:13:30.531Z,60.00
2018-05-01T17:15:58.735Z,58.70
2018-05-01T17:18:26.179Z,58.60
2018-05-01T17:20:53.611Z,60.40
2018-05-01T17:23:21.066Z,59.50
2018-05-01T17:25:49.271Z,60.30
2018-05-01T17:28:16.701Z,60.20
2018-05-01T17:30:44.914Z,60.80
2018-05-01T17:33:12.362Z,60.80
2018-05-01T17:35:39.782Z,59.50
2018-05-01T17:38:07.991Z,60.20
2018-05-01T17:40:35.431Z,60.00
2018-05-01T17:43:02.871Z,59.90
2018-05-01T17:45:31.084Z,60.90
2018-05-01T17:47:58.521Z,61.00
2018-05-01T17:50:25.966Z,60.50
2018-05-01T17:52:54.173Z,61.40
2018-05-01T17:55:21.606Z,61.30
2018-05-01T17:57:49.053Z,63.00
2018-05-01T18:00:17.258Z,63.10
2018-05-01T18:02:44.682Z,63.00
2018-05-01T18:05:12.123Z,64.20
2018-05-01T18:07:40.340Z,63.60
2018-05-01T18:10:07.774Z,63.50
2018-05-01T18:12:35.304Z,63.40
2018-05-01T18:15:03.426Z,64.90
2018-05-01T18:17:30.862Z,64.90
2018-05-01T18:19:58.297Z,64.50
2018-05-01T18:22:26.506Z,64.00
2018-05-01T18:24:53.944Z,63.90
2018-05-01T18:27:21.399Z,65.80
2018-05-01T18:29:48.875Z,65.10
2018-05-01T18:32:16.306Z,66.40
2018-05-01T18:34:44.520Z,64.90
2018-05-01T18:37:11.954Z,64.70
2018-05-01T18:39:39.392Z,63.20
2018-05-01T18:42:07.598Z,64.60
2018-05-01T18:44:35.039Z,63.80
2018-05-01T18:47:02.463Z,64.20
2018-05-01T18:49:30.677Z,63.80
2018-05-01T18:51:58.097Z,63.70
2018-05-01T18:54:26.325Z,64.90
2018-05-01T18:56:53.754Z,64.70
2018-05-01T18:59:21.198Z,64.70
2018-05-01T19:01:48.634Z,65.40
2018-05-01T19:04:16.852Z,67.50
2018-05-01T19:06:44.267Z,67.10
2018-05-01T19:09:12.484Z,65.60
2018-05-01T19:11:39.915Z,65.50
2018-05-01T19:14:07.347Z,65.30
2018-05-01T19:16:34.788Z,66.00
2018-05-01T19:19:02.219Z,66.80
2018-05-01T19:21:29.673Z,66.60
2018-05-01T19:23:57.114Z,67.00
2018-05-01T19:26:24.541Z,69.90
2018-05-01T19:28:53.102Z,72.20
2018-05-01T19:31:20.558Z,72.60
2018-05-01T19:33:48.054Z,72.90
2018-05-01T19:36:15.502Z,81.20
2018-05-01T19:38:43.708Z,82.80
2018-05-01T19:41:11.187Z,82.80
2018-05-01T19:43:38.590Z,85.00
2018-05-01T19:46:06.798Z,86.30
2018-05-01T19:48:34.230Z,85.60
2018-05-01T19:51:01.804Z,85.30
2018-05-01T19:53:29.124Z,85.60
2018-05-01T19:55:57.338Z,86.30
2018-05-01T19:58:24.799Z,86.50
2018-05-01T20:00:52.230Z,87.50
2018-05-01T20:03:19.742Z,88.80
2018-05-01T20:05:47.087Z,90.50
2018-05-01T20:08:14.530Z,91.10
2018-05-01T20:10:41.974Z,91.60
2018-05-01T20:13:09.390Z,92.10
2018-05-01T20:15:36.938Z,92.70
2018-05-01T20:18:04.504Z,93.10
2018-05-01T20:20:31.974Z,93.50
2018-05-01T20:22:59.364Z,93.30
2018-05-01T20:25:26.782Z,92.80
2018-05-01T20:27:55.625Z,93.40
2018-05-01T20:30:23.881Z,93.40
2018-05-01T20:32:51.248Z,93.60
2018-05-01T20:35:18.687Z,93.70
2018-05-01T20:37:46.142Z,94.00
2018-05-01T20:40:13.576Z,94.20
2018-05-01T20:42:41.004Z,94.20
2018-05-01T20:45:08.419Z,94.50
2018-05-01T20:47:35.862Z,94.70
2018-05-01T20:50:03.278Z,95.00
2018-05-01T20:52:30.709Z,94.70
2018-05-01T20:54:58.137Z,94.50
2018-05-01T20:57:25.572Z,95.10
2018-05-01T20:59:53.006Z,95.50
2018-05-01T21:02:21.215Z,96.00
2018-05-01T21:04:48.645Z,96.00
2018-05-01T21:07:16.845Z,95.60
2018-05-01T21:09:44.266Z,95.60
2018-05-01T21:12:12.477Z,95.90
2018-05-01T21:14:39.902Z,95.80
2018-05-01T21:17:08.175Z,96.10
2018-05-01T21:19:36.384Z,96.70
2018-05-01T21:22:03.826Z,97.00
2018-05-01T21:24:31.239Z,97.30
2018-05-01T21:26:58.687Z,97.70
2018-05-01T21:29:26.150Z,98.00
2018-05-01T21:31:53.590Z,97.40
2018-05-01T21:34:21.019Z,97.20
2018-05-01T21:36:48.451Z,97.00
2018-05-01T21:39:15.898Z,97.30
2018-05-01T21:41:43.330Z,97.50
2018-05-01T21:44:10.759Z,97.20
2018-05-01T21:46:38.181Z,96.90
2018-05-01T21:49:05.622Z,96.70
2018-05-01T21:51:33.826Z,97.40
2018-05-01T21:54:01.253Z,97.50
2018-05-01T21:56:28.674Z,97.50
2018-05-01T21:58:56.107Z,97.80
2018-05-01T22:01:23.547Z,97.50
2018-05-01T22:03:50.987Z,97.10
2018-05-01T22:06:18.409Z,97.50
2018-05-01T22:08:46.611Z,97.50
2018-05-01T22:11:14.035Z,97.50
2018-05-01T22:13:41.471Z,97.40
2018-05-01T22:16:08.886Z,97.20
2018-05-01T22:18:36.315Z,97.30
2018-05-01T22:21:03.747Z,97.00
2018-05-01T22:23:31.173Z,96.60
2018-05-01T22:25:59.370Z,96.60
2018-05-01T22:28:26.847Z,96.60
2018-05-01T22:30:54.274Z,96.60
2018-05-01T22:33:21.701Z,97.10
2018-05-01T22:35:49.126Z,97.50
2018-05-01T22:38:17.318Z,98.40
2018-05-01T22:40:45.600Z,98.30
2018-05-01T22:43:12.946Z,98.20
2018-05-01T22:45:41.134Z,97.70
2018-05-01T22:48:08.565Z,97.80
2018-05-01T22:50:35.990Z,97.50
2018-05-01T22:53:03.426Z,97.30
2018-05-01T22:55:30.849Z,97.00
2018-05-01T22:57:58.287Z,96.90
2018-05-01T23:00:25.714Z,96.70
2018-05-01T23:02:53.146Z,96.60
2018-05-01T23:05:20.567Z,96.80
2018-05-01T23:07:47.992Z,97.40
2018-05-01T23:10:15.431Z,98.10
2018-05-01T23:12:42.858Z,98.30
2018-05-01T23:15:10.279Z,99.00
2018-05-01T23:17:38.469Z,99.10
2018-05-01T23:20:05.894Z,99.00
2018-05-01T23:22:33.331Z,98.80
2018-05-01T23:25:00.774Z,98.80
2018-05-01T23:27:28.191Z,98.90
2018-05-01T23:29:55.617Z,99.00
2018-05-01T23:32:23.051Z,99.00
2018-05-01T23:34:50.482Z,98.90
2018-05-01T23:37:17.906Z,98.90
2018-05-01T23:39:46.108Z,99.10
2018-05-01T23:42:13.535Z,98.90
2018-05-01T23:44:40.964Z,98.60
2018-05-01T23:47:08.393Z,98.90
2018-05-01T23:49:35.813Z,99.00
2018-05-01T23:52:04.012Z,99.40
2018-05-01T23:54:31.442Z,99.30
2018-05-01T23:56:59.643Z,99.20
2018-05-01T23:59:27.070Z,99.20
